Πλησιέστερες Αναφορές METAR

 

LGTS - Thessaloniki/Makedonia-Elev 7m
Απόσταση από σταθμό: Ν 13km
Ενημερώθηκε: 24/02/2017 16:20
Αίθριος
Αίθριος
 Ανεμοι από ΝΝΑ
Ανεμος: ΝΝΑ 19 km/h
Θερμοκρασία: 18°C
Σημείο Δρόσου: 4°C
Υγρασία: 40%
Βαρόμετρο: 1013 hPa
Περίληψη: Αίθριος
Ορατότητα: πάνω από 10 km
2017/02/24 14:20 LGTS 241420Z 15010KT CAVOK 18/04 Q1013 NOSIG
LGAV - Athens/Elef. Venizelos-Elev 94m
Απόσταση από σταθμό: ΝΝΑ 312km
Ενημερώθηκε: 24/02/2017 16:20
Διάσπαρτα Νέφη
Διάσπαρτα Νέφη
 Ανεμοι από Ν
Ανεμος: Ν 24 km/h
Θερμοκρασία: 18°C
Σημείο Δρόσου: 10°C
Υγρασία: 60%
Βαρόμετρο: 1017 hPa
Νέφωση: Διάσπαρτα Νέφη
Ορατότητα: 10 km
Λεπτομέρειες Νεφών: Διάσπαρτα Νέφη 914 m
2017/02/24 14:20 LGAV 241420Z 19013KT 170V230 9999 FEW030 18/10 Q1017 NOSIG
 
LGAL - Alexandroupolis-Elev 3m
Απόσταση από σταθμό: Α 251km
Ενημερώθηκε: 24/02/2017 16:20
Μερικώς νεφελώδης
Μερικώς νεφελώδης
 Ανεμοι από Ν
Ανεμος: Ν 30 km/h, Ριπή: 48 km/h
Θερμοκρασία: 15°C
Σημείο Δρόσου: 10°C
Υγρασία: 72%
Βαρόμετρο: 1015 hPa
Νέφωση: Μερικώς νεφελώδης
Ορατότητα: 10 km
Λεπτομέρειες Νεφών: Μερικώς νεφελώδης 549 m
2017/02/24 14:20 LGAL 241420Z 19016G26KT 9999 SCT018 15/10 Q1015
LGKV - Kavala/Crysoupolis-Elev 5m
Απόσταση από σταθμό: ΑΒΑ 144km
Ενημερώθηκε: 24/02/2017 16:20
Διάσπαρτα Νέφη
Διάσπαρτα Νέφη
 Ανεμοι από Δ
Ανεμος: Δ 13 km/h
Θερμοκρασία: 15°C
Σημείο Δρόσου: 11°C
Υγρασία: 77%
Βαρόμετρο: 1014 hPa
Νέφωση: Διάσπαρτα Νέφη
Ορατότητα: 10 km
Λεπτομέρειες Νεφών: Διάσπαρτα Νέφη 610 m
2017/02/24 14:20 LGKV 241420Z 28007KT 9999 FEW020 15/11 Q1014
 
LGSK - Skiathos Island-Elev 15m
Απόσταση από σταθμό: ΝΝΑ 168km
Ενημερώθηκε: 24/02/2017 15:50
Αίθριος
Αίθριος
 Ανεμοι από άπνοια
Ανεμος: άπνοια
Θερμοκρασία: 18°C
Σημείο Δρόσου: 6°C
Υγρασία: 46%
Βαρόμετρο: 1014 hPa
Περίληψη: Αίθριος
Ορατότητα: πάνω από 10 km
2017/02/24 13:50 LGSK 241350Z 00000KT CAVOK 18/06 Q1014
LGLM - Limnos Island-Elev 5m
Απόσταση από σταθμό: ΑΝΑ 210km
Ενημερώθηκε: 24/02/2017 16:20
Μερικώς νεφελώδης
Μερικώς νεφελώδης
 Ανεμοι από Ν
Ανεμος: Ν 31 km/h
Θερμοκρασία: 15°C
Σημείο Δρόσου: 11°C
Υγρασία: 77%
Βαρόμετρο: 1015 hPa
Νέφωση: Μερικώς νεφελώδης
Ορατότητα: 10 km
Λεπτομέρειες Νεφών: Διάσπαρτα Νέφη 549 m
Μερικώς νεφελώδης 5486 m
2017/02/24 14:20 LGLM 241420Z 18017KT 9999 FEW018 SCT180 15/11 Q1015
 
LGMT - Mitilini Island-Elev 17m
Απόσταση από σταθμό: ΑΝΑ 358km
Ενημερώθηκε: 24/02/2017 16:20
Μερικώς νεφελώδης
Μερικώς νεφελώδης
 Ανεμοι από ΝΝΑ
Ανεμος: ΝΝΑ 19 km/h, Ριπή: 37 km/h
Θερμοκρασία: 16°C
Σημείο Δρόσου: 10°C
Υγρασία: 68%
Βαρόμετρο: 1018 hPa
Νέφωση: Μερικώς νεφελώδης
Ορατότητα: 10 km
Λεπτομέρειες Νεφών: Μερικώς νεφελώδης 762 m
2017/02/24 14:20 LGMT 241420Z 16010G20KT 130V240 9999 SCT025 16/10 Q1018
LGSY - Skiros Island-Elev 15m
Απόσταση από σταθμό: ΝΑ 227km
Ενημερώθηκε: 24/02/2017 15:50
Αίθριος
Αίθριος
 Ανεμοι από Ν
Ανεμος: Ν 28 km/h, Ριπή: 46 km/h
Θερμοκρασία: 18°C
Σημείο Δρόσου: 9°C
Υγρασία: 56%
Βαρόμετρο: 1013 hPa
Περίληψη: Αίθριος
Ορατότητα: πάνω από 10 km
2017/02/24 13:50 LGSY 241350Z 18015G25KT CAVOK 18/09 Q1013 RMK FEW080 BKN180 BLU
 
LGKZ - Kozani-Elev 628m
Απόσταση από σταθμό: ΔΝΔ 102km
Ενημερώθηκε: 24/02/2017 15:50
Αίθριος
Αίθριος
 Ανεμοι από άπνοια
Ανεμος: άπνοια
Θερμοκρασία: 18°C
Σημείο Δρόσου: -2°C
Υγρασία: 26%
Βαρόμετρο: 1015 hPa
Περίληψη: Αίθριος
Ορατότητα: πάνω από 10 km
2017/02/24 13:50 LGKZ 241350Z 00000KT CAVOK 18/M02 Q1015
LGIO - Ioannina-Elev 476m
Απόσταση από σταθμό: ΔΝΔ 209km
Ενημερώθηκε: 24/02/2017 16:20
Σχεδόν νεφελώδης
Σχεδόν νεφελώδης
 Ανεμοι από μεταβλητός
Ανεμος: μεταβλητός 0 km/h
Θερμοκρασία: 13°C
Σημείο Δρόσου: 6°C
Υγρασία: 63%
Βαρόμετρο: 1018 hPa
Νέφωση: Σχεδόν νεφελώδης
Ορατότητα: 10 km
Λεπτομέρειες Νεφών: Μερικώς νεφελώδης 914 m
Σχεδόν νεφελώδης 2134 m
2017/02/24 14:20 LGIO 241420Z /////KT 9999 SCT030 BKN070 13/06 Q1018
 
LGZA - Zakinthos-Elev 3m
Απόσταση από σταθμό: ΝΝΔ 367km
Ενημερώθηκε: 24/02/2017 15:50
Μερικώς νεφελώδης
Μερικώς νεφελώδης
 Ανεμοι από ΝΝΑ
Ανεμος: ΝΝΑ 15 km/h
Θερμοκρασία: 17°C
Σημείο Δρόσου: 10°C
Υγρασία: 64%
Βαρόμετρο: 1019 hPa
Νέφωση: Μερικώς νεφελώδης
Ορατότητα: 10 km
Λεπτομέρειες Νεφών: Μερικώς νεφελώδης 762 m
Μερικώς νεφελώδης 2438 m
2017/02/24 13:50 LGZA 241350Z 15008KT 9999 SCT025 SCT080 17/10 Q1019
LGKR - Corfu Island-Elev 2m
Απόσταση από σταθμό: ΔΝΔ 282km
Ενημερώθηκε: 24/02/2017 16:20
Μερικώς νεφελώδης
Μερικώς νεφελώδης
 Ανεμοι από ΝΝΑ
Ανεμος: ΝΝΑ 17 km/h
Θερμοκρασία: 16°C
Σημείο Δρόσου: 11°C
Υγρασία: 72%
Βαρόμετρο: 1018 hPa
Νέφωση: Μερικώς νεφελώδης
Ορατότητα: 10 km
Λεπτομέρειες Νεφών: Μερικώς νεφελώδης 549 m
Μερικώς νεφελώδης 762 m
2017/02/24 14:20 LGKR 241420Z 15009KT 9999 SCT018 SCT025 16/11 Q1018 NOSIG
 
LGSO - Syros Island-Elev 72m
Απόσταση από σταθμό: ΝΝΑ 397km
Ενημερώθηκε: 24/02/2017 15:50
Μερικώς νεφελώδης
Μερικώς νεφελώδης
 Ανεμοι από ΝΝΔ
Ανεμος: ΝΝΔ 35 km/h
Θερμοκρασία: 17°C
Σημείο Δρόσου: 9°C
Υγρασία: 59%
Βαρόμετρο: 1018 hPa
Νέφωση: Μερικώς νεφελώδης
Ορατότητα: 10 km
Λεπτομέρειες Νεφών: Μερικώς νεφελώδης 488 m
2017/02/24 13:50 LGSO 241350Z 21019KT 9999 SCT016 17/09 Q1018
LGMK - Mikonos Island-Elev 123m
Απόσταση από σταθμό: ΝΝΑ 412km
Ενημερώθηκε: 24/02/2017 16:20
Μερικώς νεφελώδης
Μερικώς νεφελώδης
 Ανεμοι από Ν
Ανεμος: Ν 20 km/h
Θερμοκρασία: 15°C
Σημείο Δρόσου: 9°C
Υγρασία: 68%
Βαρόμετρο: 1019 hPa
Νέφωση: Μερικώς νεφελώδης
Ορατότητα: 10 km
Λεπτομέρειες Νεφών: Μερικώς νεφελώδης 549 m
Μερικώς νεφελώδης 2438 m
2017/02/24 14:20 LGMK 241420Z 19011KT 9999 SCT018 SCT080 15/09 Q1019
 
LGSR - Santorini Island-Elev 40m
Απόσταση από σταθμό: ΝΝΑ 520km
Ενημερώθηκε: 24/02/2017 16:20
Αίθριος
Αίθριος
 Ανεμοι από ΝΝΑ
Ανεμος: ΝΝΑ 19 km/h
Θερμοκρασία: 16°C
Σημείο Δρόσου: 10°C
Υγρασία: 68%
Βαρόμετρο: 1020 hPa
Περίληψη: Αίθριος
Ορατότητα: πάνω από 10 km
2017/02/24 14:20 LGSR 241420Z 16010KT CAVOK 16/10 Q1020
LGKL - Kalamata-Elev 8m
Απόσταση από σταθμό: Ν 405km
Ενημερώθηκε: 24/02/2017 16:20
Σχεδόν νεφελώδης
Σχεδόν νεφελώδης
 Ανεμοι από Ν
Ανεμος: Ν 13 km/h
Θερμοκρασία: 17°C
Σημείο Δρόσου: 9°C
Υγρασία: 59%
Βαρόμετρο: 1019 hPa
Νέφωση: Σχεδόν νεφελώδης
Ορατότητα: 10 km
Λεπτομέρειες Νεφών: Διάσπαρτα Νέφη 762 m
Σχεδόν νεφελώδης 1219 m
2017/02/24 14:20 LGKL 241420Z 18007KT 9999 FEW025 BKN040 17/09 Q1019
 
LGIR - Iraklion/Crete-Elev 5m
Απόσταση από σταθμό: ΝΝΑ 622km
Ενημερώθηκε: 24/02/2017 16:20
Σχεδόν νεφελώδης
Σχεδόν νεφελώδης
 Ανεμοι από ΝΝΑ
Ανεμος: ΝΝΑ 26 km/h
Θερμοκρασία: 16°C
Σημείο Δρόσου: 10°C
Υγρασία: 68%
Βαρόμετρο: 1020 hPa
Νέφωση: Σχεδόν νεφελώδης
Ορατότητα: 10 km
Λεπτομέρειες Νεφών: Διάσπαρτα Νέφη 610 m
Σχεδόν νεφελώδης 914 m
2017/02/24 14:20 LGIR 241420Z 16014KT 9999 FEW020 BKN030 16/10 Q1020 NOSIG
LGRP - Rhodes-Elev 5m
Απόσταση από σταθμό: ΝΑ 649km
Ενημερώθηκε: 24/02/2017 16:20
Σχεδόν νεφελώδης
Σχεδόν νεφελώδης
 Ανεμοι από άπνοια
Ανεμος: άπνοια
Θερμοκρασία: 16°C
Σημείο Δρόσου: 9°C
Υγρασία: 63%
Βαρόμετρο: 1021 hPa
Νέφωση: Σχεδόν νεφελώδης
Ορατότητα: 10 km
Λεπτομέρειες Νεφών: Διάσπαρτα Νέφη 488 m
Σχεδόν νεφελώδης 762 m
2017/02/24 14:20 LGRP 241420Z 00000KT 9999 FEW016 BKN025 16/09 Q1021 NOSIG
 
LWOH - Ohrid/FYROM-Elev 761m
Απόσταση από σταθμό: ΔΒΔ 188km
Ενημερώθηκε: 24/02/2017 16:30
Αίθριος
Αίθριος
 Ανεμοι από ΝΝΑ
Ανεμος: ΝΝΑ 6 km/h
Θερμοκρασία: 13°C
Σημείο Δρόσου: 0°C
Υγρασία: 41%
Βαρόμετρο: 1015 hPa
Περίληψη: Αίθριος
Ορατότητα: πάνω από 10 km
2017/02/24 14:30 LWOH 241430Z 15003KT CAVOK 13/00 Q1015
LBSF - Sofia/Bulgaria-Elev 595m
Απόσταση από σταθμό: Β 227km
Ενημερώθηκε: 24/02/2017 16:30
Αίθριος
Αίθριος
 Ανεμοι από ΒΔ
Ανεμος: ΒΔ 19 km/h
Θερμοκρασία: 18°C
Σημείο Δρόσου: 2°C
Υγρασία: 34%
Βαρόμετρο: 1010 hPa
Περίληψη: Αίθριος
Ορατότητα: πάνω από 10 km
2017/02/24 14:30 LBSF 241430Z 31010KT CAVOK 18/02 Q1010 NOSIG